Time;durP1;ratioP1;P1;durP2;ratioP2;P2;SDS_P1;SDS_P2;PMS_P1;PMS_P2;Temp;Humidity;BMP_temperature;BMP_pressure;BME280_temperature;BME280_humidity;BME280_pressure;Samples;Min_cycle;Max_cycle;Signal;HPM_P1;HPM_P2
2022/03/09 00:00:31;;;;;;;2.00;1.50;;;20.30;42.40;;;;;;5016511;28;20900;-81
2022/03/09 00:02:56;;;;;;;3.03;1.50;;;20.30;42.70;;;;;;5017660;28;20414;-81
2022/03/09 00:05:22;;;;;;;5.27;1.80;;;20.30;42.70;;;;;;5025632;28;20207;-80
2022/03/09 00:07:48;;;;;;;12.63;3.00;;;20.30;42.40;;;;;;5034084;28;20274;-79
2022/03/09 00:10:13;;;;;;;3.80;1.50;;;20.30;42.80;;;;;;5032557;28;20165;-79
2022/03/09 00:12:39;;;;;;;2.60;1.70;;;20.30;42.40;;;;;;5018535;28;20174;-80
2022/03/09 00:15:05;;;;;;;2.20;1.67;;;20.30;42.70;;;;;;5011792;28;20286;-80
2022/03/09 00:17:31;;;;;;;6.73;1.50;;;20.30;42.50;;;;;;5009255;28;20685;-79
2022/03/09 00:19:56;;;;;;;2.43;1.43;;;20.30;42.50;;;;;;5009754;28;20488;-79
2022/03/09 00:22:22;;;;;;;2.37;1.43;;;20.30;42.50;;;;;;5011411;28;20174;-79
2022/03/09 00:24:47;;;;;;;1.93;1.30;;;20.30;42.40;;;;;;5010257;28;20280;-79
2022/03/09 00:27:13;;;;;;;2.50;1.50;;;20.20;42.50;;;;;;5010170;28;20218;-79
2022/03/09 00:29:39;;;;;;;5.90;1.70;;;20.20;42.30;;;;;;5009946;28;20237;-80
2022/03/09 00:32:06;;;;;;;1.97;1.27;;;20.10;42.70;;;;;;5011178;28;20233;-81
2022/03/09 00:34:32;;;;;;;7.20;1.60;;;20.20;42.40;;;;;;5011061;28;20634;-79
2022/03/09 00:36:58;;;;;;;2.90;1.60;;;20.40;42.60;;;;;;5012393;28;20440;-79
2022/03/09 00:39:23;;;;;;;42.03;2.63;;;20.20;42.40;;;;;;5012012;28;20515;-81
2022/03/09 00:41:49;;;;;;;24.23;2.17;;;20.20;43.80;;;;;;5012418;28;20177;-81
2022/03/09 00:44:14;;;;;;;9.47;1.70;;;20.30;43.60;;;;;;5014574;28;20194;-81
2022/03/09 00:46:40;;;;;;;14.47;2.83;;;20.20;43.40;;;;;;5012036;28;20221;-79
2022/03/09 00:49:06;;;;;;;11.43;3.53;;;19.60;37.10;;;;;;5012939;28;20174;-79
2022/03/09 00:51:31;;;;;;;9.60;2.63;;;19.10;35.20;;;;;;5015075;28;20197;-80
2022/03/09 00:53:57;;;;;;;16.07;3.47;;;19.30;39.00;;;;;;5015601;28;20682;-80
2022/03/09 00:56:22;;;;;;;5.40;2.70;;;19.50;39.50;;;;;;5014496;28;20166;-79
2022/03/09 00:58:48;;;;;;;7.50;2.43;;;19.50;39.50;;;;;;5012188;28;20214;-79
2022/03/09 01:01:14;;;;;;;6.47;2.50;;;19.60;40.00;;;;;;5012551;28;20281;-79
2022/03/09 01:03:40;;;;;;;8.03;2.70;;;19.60;39.40;;;;;;5012454;28;20236;-79
2022/03/09 01:06:05;;;;;;;10.00;3.20;;;19.60;39.60;;;;;;5013436;28;20171;-79
2022/03/09 01:08:31;;;;;;;8.13;2.80;;;19.60;39.40;;;;;;5013285;28;20436;-79
2022/03/09 01:10:57;;;;;;;4.70;2.40;;;19.60;39.60;;;;;;5014070;28;20519;-79
2022/03/09 01:13:23;;;;;;;7.10;2.50;;;19.60;39.40;;;;;;5012489;28;20626;-79
2022/03/09 01:15:49;;;;;;;6.20;2.27;;;19.60;39.70;;;;;;5011967;28;20771;-79
2022/03/09 01:18:15;;;;;;;4.00;2.30;;;19.60;39.70;;;;;;5013431;28;20670;-79
2022/03/09 01:20:40;;;;;;;3.60;2.40;;;19.50;39.80;;;;;;5013018;28;20487;-79
2022/03/09 01:23:06;;;;;;;9.00;2.70;;;19.50;39.70;;;;;;5013713;28;20177;-79
2022/03/09 01:25:32;;;;;;;3.07;2.10;;;19.50;39.70;;;;;;5013568;28;20250;-79
2022/03/09 01:27:58;;;;;;;8.93;2.40;;;19.50;39.50;;;;;;5011317;28;20212;-79
2022/03/09 01:30:24;;;;;;;7.27;2.90;;;19.40;39.90;;;;;;5011867;28;20237;-79
2022/03/09 01:32:49;;;;;;;5.33;2.80;;;19.40;40.10;;;;;;5013374;28;20409;-79
2022/03/09 01:35:15;;;;;;;4.37;2.30;;;19.40;40.50;;;;;;5011984;28;20181;-79
2022/03/09 01:37:41;;;;;;;3.43;2.50;;;19.40;40.10;;;;;;5013011;28;20198;-79
2022/03/09 01:40:07;;;;;;;5.27;2.90;;;19.40;40.00;;;;;;5011737;28;20255;-79
2022/03/09 01:42:33;;;;;;;5.33;2.57;;;19.40;40.10;;;;;;5013582;28;20448;-81
2022/03/09 01:45:08;;;;;;;3.50;2.50;;;19.40;39.80;;;;;;5014014;28;20492;-81
2022/03/09 01:47:34;;;;;;;4.63;2.10;;;19.40;40.30;;;;;;5012799;28;20569;-81
2022/03/09 01:50:00;;;;;;;6.47;2.77;;;19.30;40.60;;;;;;5011726;28;20429;-81
2022/03/09 01:52:26;;;;;;;5.03;2.80;;;19.20;40.10;;;;;;5013130;28;20417;-79
2022/03/09 01:54:52;;;;;;;5.90;2.70;;;19.30;40.50;;;;;;5013447;28;20402;-80
2022/03/09 01:57:20;;;;;;;4.40;2.57;;;19.30;40.50;;;;;;5013219;28;20445;-80
2022/03/09 01:59:48;;;;;;;3.83;2.40;;;19.30;40.50;;;;;;5011986;28;20543;-81
2022/03/09 02:02:14;;;;;;;7.10;2.70;;;19.20;40.30;;;;;;5012286;28;20417;-81
2022/03/09 02:04:40;;;;;;;3.70;2.23;;;19.30;40.30;;;;;;5015487;28;20497;-80
2022/03/09 02:07:08;;;;;;;3.80;2.23;;;19.20;40.20;;;;;;5015778;28;20190;-80
2022/03/09 02:09:46;;;;;;;5.27;2.90;;;19.20;40.50;;;;;;5016114;28;20576;-80
2022/03/09 02:12:17;;;;;;;11.37;2.70;;;19.20;40.70;;;;;;5017256;28;20417;-81
2022/03/09 02:14:53;;;;;;;4.17;2.73;;;19.20;40.60;;;;;;5017159;28;20420;-81
2022/03/09 02:17:21;;;;;;;4.13;2.47;;;19.20;40.30;;;;;;5017146;28;20425;-80
2022/03/09 02:19:49;;;;;;;4.90;3.30;;;19.20;40.70;;;;;;5015438;28;20453;-80
2022/03/09 02:22:37;;;;;;;5.63;2.53;;;19.10;40.30;;;;;;5016225;28;20424;-81
2022/03/09 02:25:08;;;;;;;3.93;2.57;;;19.20;40.50;;;;;;5017477;28;20401;-80
2022/03/09 02:27:34;;;;;;;4.27;2.20;;;19.10;40.30;;;;;;5017946;28;20440;-80
2022/03/09 02:30:01;;;;;;;3.97;2.30;;;19.10;40.20;;;;;;5018722;28;20499;-80
2022/03/09 02:32:26;;;;;;;4.70;2.60;;;19.00;40.10;;;;;;5017102;28;20507;-80
2022/03/09 02:34:52;;;;;;;5.90;2.50;;;19.10;40.20;;;;;;5018071;28;20421;-79
2022/03/09 02:37:18;;;;;;;31.27;2.60;;;19.10;40.10;;;;;;5020549;28;20358;-82
2022/03/09 02:39:43;;;;;;;3.43;2.03;;;19.10;40.30;;;;;;5019763;28;20242;-80
2022/03/09 02:42:10;;;;;;;3.83;2.10;;;19.00;40.00;;;;;;5021151;28;20238;-80
2022/03/09 02:44:36;;;;;;;3.77;2.57;;;19.00;40.50;;;;;;5020200;28;20542;-80
2022/03/09 02:47:02;;;;;;;5.40;2.60;;;19.10;40.70;;;;;;5013970;28;20421;-81
2022/03/09 02:49:28;;;;;;;4.43;2.40;;;19.10;40.60;;;;;;5014763;28;20472;-80
2022/03/09 02:51:53;;;;;;;4.93;2.80;;;19.10;40.50;;;;;;5014608;28;20186;-80
2022/03/09 02:54:19;;;;;;;6.23;2.13;;;19.10;41.00;;;;;;5014628;28;20420;-80
2022/03/09 02:56:45;;;;;;;4.47;3.03;;;19.10;41.10;;;;;;5015306;28;20198;-81
2022/03/09 02:59:11;;;;;;;6.33;3.20;;;19.10;40.80;;;;;;5012975;28;20183;-81
2022/03/09 03:01:37;;;;;;;3.87;2.23;;;19.10;41.10;;;;;;5013943;28;20639;-81
2022/03/09 03:04:03;;;;;;;4.33;2.27;;;19.10;40.90;;;;;;5016287;28;20589;-81
2022/03/09 03:06:29;;;;;;;4.73;3.00;;;19.10;41.10;;;;;;5017881;28;20405;-80
2022/03/09 03:08:54;;;;;;;10.20;3.23;;;19.00;41.40;;;;;;5020036;28;20182;-81
2022/03/09 03:11:20;;;;;;;5.30;3.20;;;19.10;41.90;;;;;;5017974;28;20657;-80
2022/03/09 03:13:48;;;;;;;4.90;2.63;;;18.90;42.20;;;;;;5019391;28;20210;-81
2022/03/09 03:16:14;;;;;;;7.03;2.83;;;19.10;42.60;;;;;;5018193;28;20202;-80
2022/03/09 03:18:40;;;;;;;4.00;2.40;;;19.00;42.50;;;;;;5019596;28;20924;-81
2022/03/09 03:21:05;;;;;;;5.37;2.80;;;19.00;42.40;;;;;;5019189;28;20237;-80
2022/03/09 03:23:33;;;;;;;5.50;3.27;;;19.00;42.30;;;;;;5019501;28;20166;-80
2022/03/09 03:26:01;;;;;;;7.40;2.90;;;18.90;42.30;;;;;;5019584;28;20233;-80
2022/03/09 03:28:27;;;;;;;5.00;3.23;;;19.00;42.20;;;;;;5019114;28;20445;-79
2022/03/09 03:30:53;;;;;;;6.73;2.40;;;18.90;42.10;;;;;;5019979;28;20420;-80
2022/03/09 03:33:19;;;;;;;7.80;3.47;;;19.00;42.30;;;;;;5018444;28;20186;-80
2022/03/09 03:35:46;;;;;;;4.70;2.97;;;18.90;42.20;;;;;;5021464;28;20424;-80
2022/03/09 03:38:13;;;;;;;4.63;3.00;;;18.90;42.30;;;;;;5020047;28;20915;-80
2022/03/09 03:40:39;;;;;;;7.50;3.03;;;18.90;42.30;;;;;;5018357;28;20460;-80
2022/03/09 03:43:05;;;;;;;4.80;2.87;;;18.90;42.00;;;;;;5019332;28;20428;-80
2022/03/09 03:45:31;;;;;;;7.33;3.10;;;18.80;42.00;;;;;;5020568;28;20419;-80
2022/03/09 03:47:57;;;;;;;4.57;3.10;;;18.80;42.00;;;;;;5020749;28;20433;-80
2022/03/09 03:50:23;;;;;;;7.00;3.07;;;18.80;42.10;;;;;;5020248;28;20464;-81
2022/03/09 03:52:49;;;;;;;8.23;3.43;;;18.80;41.50;;;;;;5020511;28;20178;-80
2022/03/09 03:55:15;;;;;;;5.50;3.27;;;18.70;40.90;;;;;;5021346;28;20412;-80
2022/03/09 03:57:40;;;;;;;19.33;2.97;;;18.90;40.50;;;;;;5019519;28;20452;-79
2022/03/09 04:00:08;;;;;;;5.70;2.60;;;18.80;42.60;;;;;;5019386;28;20233;-79
2022/03/09 04:02:34;;;;;;;10.50;2.97;;;19.00;42.50;;;;;;5022009;28;20177;-79
2022/03/09 04:04:59;;;;;;;5.40;2.60;;;19.00;40.70;;;;;;5022267;28;20413;-79
2022/03/09 04:07:25;;;;;;;6.50;2.93;;;19.00;40.40;;;;;;5021752;28;20198;-79
2022/03/09 04:09:51;;;;;;;8.67;3.63;;;19.00;40.10;;;;;;5019986;28;20182;-79
2022/03/09 04:12:16;;;;;;;5.53;3.10;;;19.00;40.20;;;;;;5020902;28;20309;-78
2022/03/09 04:14:42;;;;;;;6.90;3.23;;;18.90;40.30;;;;;;5020503;28;20174;-79
2022/03/09 04:17:07;;;;;;;7.87;3.00;;;19.00;39.90;;;;;;5020531;28;20194;-78
2022/03/09 04:19:33;;;;;;;5.40;3.00;;;18.90;40.30;;;;;;5021367;28;20210;-79
2022/03/09 04:21:58;;;;;;;6.17;3.20;;;18.90;39.80;;;;;;5024723;28;20166;-78
2022/03/09 04:24:24;;;;;;;5.00;3.20;;;18.90;40.10;;;;;;5022685;28;20175;-79
2022/03/09 04:26:50;;;;;;;4.57;3.20;;;18.80;39.80;;;;;;5020340;28;20194;-78
2022/03/09 04:29:16;;;;;;;6.20;3.80;;;18.90;40.00;;;;;;5020556;28;20530;-78
2022/03/09 04:31:41;;;;;;;5.83;3.40;;;18.90;39.80;;;;;;5021902;28;20312;-79
2022/03/09 04:34:07;;;;;;;7.03;3.53;;;18.80;40.10;;;;;;5022916;28;20170;-78
2022/03/09 04:36:32;;;;;;;4.97;3.37;;;18.80;40.30;;;;;;5023637;28;20225;-78
2022/03/09 04:38:58;;;;;;;5.60;3.80;;;18.90;40.00;;;;;;5023981;28;20611;-78
2022/03/09 04:41:25;;;;;;;5.87;3.50;;;18.80;39.90;;;;;;5018872;28;20566;-78
2022/03/09 04:43:51;;;;;;;5.33;3.50;;;18.80;40.20;;;;;;5017822;28;20409;-78
2022/03/09 04:46:16;;;;;;;6.13;3.90;;;18.80;39.80;;;;;;5018872;28;20409;-78
2022/03/09 04:48:43;;;;;;;7.60;3.90;;;18.70;40.20;;;;;;5018258;28;21019;-78
2022/03/09 04:51:09;;;;;;;5.93;3.77;;;18.70;40.20;;;;;;5018877;28;20170;-79
2022/03/09 04:53:35;;;;;;;5.80;3.93;;;18.70;40.10;;;;;;5018691;28;20412;-79
2022/03/09 04:56:00;;;;;;;10.33;3.70;;;18.70;40.40;;;;;;5019399;28;20467;-79
2022/03/09 04:58:26;;;;;;;8.23;4.10;;;18.70;40.60;;;;;;5020209;28;20214;-79
2022/03/09 05:00:52;;;;;;;6.20;3.83;;;18.70;40.40;;;;;;5021148;28;20229;-79
2022/03/09 05:03:18;;;;;;;6.47;3.03;;;18.70;40.10;;;;;;5021240;28;20193;-79
2022/03/09 05:05:43;;;;;;;5.70;3.77;;;18.70;40.20;;;;;;5022152;28;20419;-79
2022/03/09 05:08:12;;;;;;;5.43;3.47;;;18.70;40.20;;;;;;5021064;28;20425;-79
2022/03/09 05:10:38;;;;;;;5.30;3.30;;;18.60;40.00;;;;;;5024174;28;20178;-78
2022/03/09 05:13:04;;;;;;;6.03;3.83;;;18.70;40.30;;;;;;5018595;28;20424;-78
2022/03/09 05:15:30;;;;;;;5.70;3.50;;;18.70;40.20;;;;;;5012748;28;20182;-80
2022/03/09 05:17:56;;;;;;;5.70;3.50;;;18.70;40.00;;;;;;5014785;28;20449;-80
2022/03/09 05:20:22;;;;;;;8.27;4.57;;;18.70;40.40;;;;;;5013154;28;20492;-79
2022/03/09 05:22:49;;;;;;;6.40;3.87;;;18.70;40.50;;;;;;5013357;28;20182;-79
2022/03/09 05:25:15;;;;;;;6.30;3.53;;;18.60;40.20;;;;;;5014712;28;20189;-80
2022/03/09 05:27:41;;;;;;;5.20;3.40;;;18.70;40.30;;;;;;5013999;28;20481;-80
2022/03/09 05:30:09;;;;;;;8.20;4.10;;;18.70;40.20;;;;;;5013102;28;20488;-79
2022/03/09 05:32:35;;;;;;;7.47;3.70;;;18.70;40.10;;;;;;5012344;28;20425;-79
2022/03/09 05:35:01;;;;;;;6.20;3.40;;;18.70;39.90;;;;;;5012343;28;20417;-79
2022/03/09 05:37:28;;;;;;;7.23;3.80;;;18.70;39.90;;;;;;5012825;28;20492;-79
2022/03/09 05:39:54;;;;;;;7.97;3.50;;;18.70;40.10;;;;;;5012596;28;20460;-80
2022/03/09 05:42:20;;;;;;;4.60;3.40;;;18.70;39.70;;;;;;5012768;28;20527;-80
2022/03/09 05:44:46;;;;;;;7.70;3.90;;;18.70;39.70;;;;;;5012444;28;20429;-80
2022/03/09 05:47:11;;;;;;;9.70;4.20;;;18.80;39.70;;;;;;5013876;28;20244;-80
2022/03/09 05:49:37;;;;;;;6.67;3.70;;;18.70;39.70;;;;;;5012499;28;20558;-80
2022/03/09 05:52:04;;;;;;;5.40;3.50;;;18.70;39.50;;;;;;5014483;28;20237;-80
2022/03/09 05:54:30;;;;;;;4.67;2.90;;;18.70;39.50;;;;;;5012961;28;20179;-80
2022/03/09 05:56:55;;;;;;;9.90;4.13;;;18.60;39.50;;;;;;5014717;28;20408;-80
2022/03/09 05:59:21;;;;;;;6.33;3.40;;;18.70;39.40;;;;;;5013932;28;20243;-79
2022/03/09 06:01:46;;;;;;;7.73;3.70;;;18.80;40.10;;;;;;5014838;28;20167;-79
2022/03/09 06:04:12;;;;;;;8.40;4.67;;;18.70;39.10;;;;;;5013903;28;20185;-79
2022/03/09 06:06:38;;;;;;;6.40;3.80;;;18.80;39.40;;;;;;5014105;28;20180;-80
2022/03/09 06:09:03;;;;;;;5.43;3.43;;;18.80;39.40;;;;;;5012607;28;20595;-79
2022/03/09 06:11:29;;;;;;;5.50;4.10;;;18.80;39.30;;;;;;5014238;28;20242;-79
2022/03/09 06:13:54;;;;;;;5.10;3.47;;;18.80;39.20;;;;;;5014496;28;20170;-80
2022/03/09 06:16:20;;;;;;;6.33;3.47;;;18.80;38.90;;;;;;5013679;28;20202;-79
2022/03/09 06:18:46;;;;;;;7.03;3.60;;;18.70;38.90;;;;;;5014497;28;20190;-79
2022/03/09 06:21:13;;;;;;;5.37;3.53;;;18.80;39.10;;;;;;5013296;28;20911;-78
2022/03/09 06:23:39;;;;;;;6.47;3.57;;;18.80;39.10;;;;;;5011225;28;20178;-79
2022/03/09 06:26:05;;;;;;;7.07;3.33;;;18.80;39.30;;;;;;5015716;28;20417;-80
2022/03/09 06:28:32;;;;;;;10.07;3.93;;;18.70;39.50;;;;;;5014357;28;20845;-80
2022/03/09 06:30:58;;;;;;;6.43;3.40;;;18.80;39.20;;;;;;5023915;28;20442;-80
2022/03/09 06:33:24;;;;;;;5.33;3.50;;;18.80;39.40;;;;;;5033213;28;20788;-79
2022/03/09 06:35:50;;;;;;;6.80;3.97;;;18.80;39.40;;;;;;5028255;28;20440;-80
2022/03/09 06:38:15;;;;;;;5.73;3.30;;;18.70;39.20;;;;;;5012758;28;20201;-81
2022/03/09 06:40:42;;;;;;;7.80;3.33;;;18.70;39.40;;;;;;5026040;28;20614;-81
2022/03/09 06:43:08;;;;;;;7.97;4.23;;;18.70;39.30;;;;;;5029859;28;20166;-79
2022/03/09 06:45:36;;;;;;;6.27;3.63;;;18.80;39.50;;;;;;5027507;28;20544;-79
2022/03/09 06:48:02;;;;;;;6.20;3.67;;;18.70;39.10;;;;;;5019826;28;20192;-79
2022/03/09 06:50:28;;;;;;;7.20;4.37;;;18.70;39.10;;;;;;5021542;28;20969;-80
2022/03/09 06:52:54;;;;;;;5.90;4.20;;;18.70;39.20;;;;;;5015951;28;20532;-80
2022/03/09 06:55:20;;;;;;;7.40;4.20;;;18.80;39.30;;;;;;5018353;28;20417;-81
2022/03/09 06:57:46;;;;;;;7.33;4.40;;;18.60;38.80;;;;;;5019313;28;20194;-79
2022/03/09 07:00:16;;;;;;;5.80;3.33;;;18.70;38.90;;;;;;5019651;28;20195;-79
2022/03/09 07:02:42;;;;;;;9.30;4.20;;;18.70;39.10;;;;;;5020172;28;20594;-81
2022/03/09 07:05:09;;;;;;;5.23;3.67;;;18.70;39.10;;;;;;5019593;28;20445;-80
2022/03/09 07:07:36;;;;;;;14.83;3.70;;;18.70;40.10;;;;;;5017630;28;21013;-79
2022/03/09 07:10:02;;;;;;;5.43;3.43;;;18.80;39.80;;;;;;5019027;28;20433;-79
2022/03/09 07:12:27;;;;;;;11.43;3.70;;;18.80;39.60;;;;;;5019370;28;20445;-79
2022/03/09 07:14:53;;;;;;;6.90;4.30;;;18.90;39.20;;;;;;5022493;28;21002;-80
2022/03/09 07:17:19;;;;;;;6.03;3.03;;;18.90;39.20;;;;;;5021833;28;20551;-80
2022/03/09 07:19:44;;;;;;;19.50;2.80;;;18.90;41.20;;;;;;5022754;28;20201;-81
2022/03/09 07:22:10;;;;;;;11.60;2.80;;;19.00;42.20;;;;;;5023671;28;20670;-80
2022/03/09 07:24:36;;;;;;;9.13;3.00;;;19.10;42.70;;;;;;5025006;28;20171;-79
2022/03/09 07:27:02;;;;;;;5.73;3.07;;;19.10;42.60;;;;;;5026230;28;20208;-80
2022/03/09 07:29:27;;;;;;;6.60;3.30;;;19.20;40.10;;;;;;5035529;28;20417;-80
2022/03/09 07:31:53;;;;;;;7.07;3.07;;;19.20;38.50;;;;;;5040397;28;20166;-80
2022/03/09 07:34:22;;;;;;;8.83;3.77;;;19.30;38.10;;;;;;5023113;28;20174;-79
2022/03/09 07:36:49;;;;;;;12.00;2.83;;;19.30;37.70;;;;;;5025332;28;20166;-80
2022/03/09 07:39:15;;;;;;;5.70;3.20;;;19.40;41.40;;;;;;5030056;28;20417;-79
2022/03/09 07:41:41;;;;;;;5.00;2.67;;;19.50;42.20;;;;;;5030941;28;20428;-79
2022/03/09 07:44:06;;;;;;;6.83;2.40;;;19.70;42.40;;;;;;5038248;28;20174;-80
2022/03/09 07:46:32;;;;;;;6.07;2.53;;;19.80;42.40;;;;;;5039233;28;20494;-80
2022/03/09 07:48:57;;;;;;;4.70;2.00;;;19.90;41.60;;;;;;5039661;28;20223;-80
2022/03/09 07:51:23;;;;;;;6.03;2.80;;;20.10;41.70;;;;;;5036393;28;20199;-79
2022/03/09 07:53:50;;;;;;;4.47;2.33;;;20.10;40.80;;;;;;5033207;28;20162;-80
2022/03/09 07:56:17;;;;;;;6.23;2.20;;;20.20;41.20;;;;;;5033949;28;20178;-79
2022/03/09 07:58:47;;;;;;;12.57;2.33;;;20.20;41.50;;;;;;5032356;28;20439;-80
2022/03/09 08:01:14;;;;;;;7.33;2.20;;;20.30;42.10;;;;;;5029025;28;20547;-81
2022/03/09 08:03:40;;;;;;;6.73;2.13;;;20.40;42.20;;;;;;5032010;28;20416;-81
2022/03/09 08:06:06;;;;;;;6.77;1.90;;;20.40;42.20;;;;;;5031777;28;20943;-79
2022/03/09 08:08:33;;;;;;;12.63;2.50;;;20.50;42.30;;;;;;5032254;28;20438;-79
2022/03/09 08:10:59;;;;;;;4.87;2.23;;;20.50;41.70;;;;;;5033727;28;20412;-79
2022/03/09 08:13:26;;;;;;;3.70;2.20;;;20.50;41.40;;;;;;5033473;28;20408;-80
2022/03/09 08:15:53;;;;;;;4.73;2.27;;;20.50;41.10;;;;;;5033172;28;20919;-79
2022/03/09 08:18:20;;;;;;;4.80;2.23;;;20.60;41.50;;;;;;5031692;28;20657;-80
2022/03/09 08:20:45;;;;;;;3.83;2.50;;;20.60;41.80;;;;;;5011486;28;20464;-80
2022/03/09 08:23:11;;;;;;;5.73;2.80;;;20.60;41.60;;;;;;5016676;28;20433;-80
2022/03/09 08:25:37;;;;;;;5.07;2.20;;;20.60;41.70;;;;;;5018429;28;20175;-81
2022/03/09 08:28:03;;;;;;;6.07;1.93;;;20.60;42.00;;;;;;5034016;28;20216;-79
2022/03/09 08:30:29;;;;;;;3.27;2.07;;;20.60;42.30;;;;;;5039445;28;20440;-79
2022/03/09 08:32:55;;;;;;;15.33;2.43;;;20.60;42.10;;;;;;5038244;28;20419;-79
2022/03/09 08:35:21;;;;;;;3.47;1.63;;;20.60;42.40;;;;;;5036655;28;20174;-80
2022/03/09 08:37:46;;;;;;;7.10;1.90;;;20.60;42.30;;;;;;5041065;28;20432;-79
2022/03/09 08:40:12;;;;;;;4.70;2.10;;;20.60;42.90;;;;;;5017094;28;20748;-79
2022/03/09 08:42:39;;;;;;;3.70;1.70;;;20.60;42.90;;;;;;5028851;28;20194;-79
2022/03/09 08:45:05;;;;;;;7.20;1.90;;;20.60;43.10;;;;;;5018616;28;20437;-79
2022/03/09 08:47:31;;;;;;;4.23;2.03;;;20.60;43.40;;;;;;5015733;28;20422;-79
2022/03/09 08:49:57;;;;;;;2.67;1.80;;;20.60;43.30;;;;;;5016440;28;20993;-79
2022/03/09 08:52:23;;;;;;;4.47;1.93;;;20.60;43.60;;;;;;5015984;28;20265;-80
2022/03/09 08:54:53;;;;;;;2.90;1.90;;;20.60;43.40;;;;;;5023314;28;20408;-78
2022/03/09 08:57:20;;;;;;;3.00;1.50;;;20.70;43.30;;;;;;5026272;28;20461;-79
2022/03/09 08:59:46;;;;;;;5.83;1.80;;;20.70;43.50;;;;;;5018883;28;20520;-78
2022/03/09 09:02:12;;;;;;;6.50;2.10;;;20.70;44.20;;;;;;5032511;28;20435;-79
2022/03/09 09:04:38;;;;;;;7.23;1.90;;;20.70;44.30;;;;;;5036951;28;20459;-79
2022/03/09 09:07:06;;;;;;;7.93;1.70;;;20.80;44.60;;;;;;5031885;28;20532;-82
2022/03/09 09:09:32;;;;;;;4.80;1.97;;;20.90;44.60;;;;;;5033262;28;20239;-82
2022/03/09 09:11:59;;;;;;;4.80;1.47;;;21.00;44.50;;;;;;5051386;28;20425;-82
2022/03/09 09:14:25;;;;;;;5.50;2.20;;;21.10;44.40;;;;;;5048163;28;20452;-79
2022/03/09 09:16:52;;;;;;;10.20;2.10;;;21.20;44.40;;;;;;5048538;28;20416;-79
2022/03/09 09:19:18;;;;;;;2.90;2.10;;;21.20;44.20;;;;;;5035681;28;20436;-81
2022/03/09 09:21:44;;;;;;;3.63;1.90;;;21.30;44.20;;;;;;5017699;28;20471;-80
2022/03/09 09:24:10;;;;;;;5.97;1.63;;;21.40;44.20;;;;;;5028956;28;20420;-79
2022/03/09 09:26:36;;;;;;;2.93;1.67;;;21.50;44.10;;;;;;5028519;28;20928;-81
2022/03/09 09:29:02;;;;;;;2.37;1.60;;;21.50;44.10;;;;;;5031069;28;20205;-81
2022/03/09 09:31:28;;;;;;;5.80;1.80;;;21.60;44.20;;;;;;5035839;28;20174;-81
2022/03/09 09:33:54;;;;;;;3.60;1.90;;;21.70;44.20;;;;;;5021959;28;20479;-81
2022/03/09 09:36:20;;;;;;;3.23;1.90;;;21.70;44.20;;;;;;5011137;28;20183;-80
2022/03/09 09:38:45;;;;;;;3.77;1.53;;;21.90;44.40;;;;;;5012418;28;20438;-80
2022/03/09 09:41:18;;;;;;;4.37;2.00;;;21.80;44.20;;;;;;5011621;28;20214;-81
2022/03/09 09:43:45;;;;;;;1.77;1.30;;;21.80;44.30;;;;;;5012186;28;20236;-81
2022/03/09 09:46:15;;;;;;;3.43;1.47;;;21.90;44.30;;;;;;5010325;28;20428;-80
2022/03/09 09:48:42;;;;;;;2.10;1.47;;;22.00;44.50;;;;;;5010757;28;20424;-82
2022/03/09 09:51:08;;;;;;;2.30;1.47;;;22.00;44.40;;;;;;5011689;28;20417;-82
2022/03/09 09:53:35;;;;;;;2.50;1.70;;;22.00;44.40;;;;;;5012303;28;20405;-81
2022/03/09 09:56:02;;;;;;;4.23;1.47;;;22.10;44.40;;;;;;5017490;28;20178;-80
2022/03/09 09:58:29;;;;;;;2.17;1.43;;;22.10;44.20;;;;;;5026059;28;20439;-81
2022/03/09 10:00:56;;;;;;;2.03;1.30;;;22.20;44.10;;;;;;5017552;28;20460;-82
2022/03/09 10:03:22;;;;;;;2.53;1.50;;;22.20;43.90;;;;;;5011613;28;20405;-81
2022/03/09 10:05:48;;;;;;;2.67;1.60;;;22.20;44.40;;;;;;5010198;28;20479;-81
2022/03/09 10:08:17;;;;;;;8.30;1.90;;;22.20;43.70;;;;;;5010671;28;20441;-81
2022/03/09 10:10:53;;;;;;;11.23;2.00;;;22.40;43.40;;;;;;5007856;28;20264;-82
2022/03/09 10:13:22;;;;;;;18.73;5.00;;;22.20;43.80;;;;;;5013372;28;20794;-85
2022/03/09 10:16:07;;;;;;;11.10;3.23;;;22.30;44.30;;;;;;5012926;28;20428;-82
2022/03/09 10:18:34;;;;;;;21.67;4.67;;;22.30;44.40;;;;;;5012746;28;20440;-83
2022/03/09 10:21:18;;;;;;;7.50;1.90;;;22.30;43.90;;;;;;5012731;28;20486;-82
2022/03/09 10:24:01;;;;;;;5.13;1.97;;;22.30;44.00;;;;;;5018269;28;20400;-85
2022/03/09 10:26:35;;;;;;;5.83;2.37;;;22.30;43.70;;;;;;5033157;28;20810;-84
2022/03/09 10:29:04;;;;;;;3.10;1.43;;;22.30;44.20;;;;;;5023663;28;20487;-84
2022/03/09 10:31:35;;;;;;;6.20;2.00;;;22.40;44.40;;;;;;5029663;28;20470;-84
2022/03/09 10:34:24;;;;;;;17.80;2.13;;;22.40;44.50;;;;;;5014652;28;20710;-82
2022/03/09 10:36:59;;;;;;;4.60;1.63;;;22.40;44.80;;;;;;5015532;28;20412;-82
2022/03/09 10:39:28;;;;;;;9.60;4.50;;;22.40;44.60;;;;;;5012933;28;20423;-79
2022/03/09 10:41:54;;;;;;;11.63;5.13;;;22.50;40.00;;;;;;5014109;28;20536;-79
2022/03/09 10:44:39;;;;;;;8.63;5.63;;;22.40;38.50;;;;;;5013321;28;20454;-79
2022/03/09 10:47:04;;;;;;;6.30;3.83;;;22.30;37.30;;;;;;5027438;28;20485;-79
2022/03/09 10:49:30;;;;;;;12.10;5.80;;;22.30;37.70;;;;;;5032792;28;20443;-78
2022/03/09 10:51:56;;;;;;;7.30;5.00;;;22.30;37.10;;;;;;5018535;28;20173;-79
2022/03/09 10:54:27;;;;;;;6.97;5.40;;;22.30;36.10;;;;;;5014940;28;20186;-79
2022/03/09 10:57:12;;;;;;;11.53;6.50;;;22.30;35.50;;;;;;5014494;28;20821;-80
2022/03/09 10:59:52;;;;;;;8.07;5.70;;;22.30;35.80;;;;;;5014040;28;20420;-78
2022/03/09 11:02:19;;;;;;;10.40;5.60;;;22.30;37.10;;;;;;5013770;28;20893;-78
2022/03/09 11:05:08;;;;;;;7.30;5.50;;;22.30;34.70;;;;;;5011594;28;20419;-79
2022/03/09 11:07:39;;;;;;;6.40;4.97;;;22.20;34.20;;;;;;5012674;28;20813;-79
2022/03/09 11:10:08;;;;;;;9.20;6.90;;;22.20;35.70;;;;;;5014151;28;20416;-78
2022/03/09 11:12:34;;;;;;;8.20;6.20;;;22.20;34.90;;;;;;5012046;28;20425;-78
2022/03/09 11:15:00;;;;;;;7.13;5.33;;;22.20;36.90;;;;;;5012961;28;20436;-77
2022/03/09 11:17:26;;;;;;;9.73;6.27;;;22.10;32.40;;;;;;5012865;28;20983;-78
2022/03/09 11:19:53;;;;;;;9.00;5.37;;;22.20;32.90;;;;;;5012671;28;20534;-78
2022/03/09 11:22:19;;;;;;;9.17;5.87;;;22.20;35.30;;;;;;5013359;28;20170;-78
2022/03/09 11:24:45;;;;;;;9.30;5.50;;;22.20;31.70;;;;;;5011073;28;21047;-78
2022/03/09 11:27:11;;;;;;;9.13;6.40;;;22.10;33.50;;;;;;5013869;28;20203;-78
2022/03/09 11:29:38;;;;;;;10.30;6.27;;;21.90;30.60;;;;;;5012474;28;20414;-78
2022/03/09 11:32:06;;;;;;;10.10;6.80;;;21.80;30.10;;;;;;5013710;28;20414;-78
2022/03/09 11:34:46;;;;;;;8.13;5.93;;;21.90;30.20;;;;;;5012753;28;20444;-78
2022/03/09 11:37:17;;;;;;;8.10;6.10;;;21.90;31.80;;;;;;5012053;28;20785;-78
2022/03/09 11:40:10;;;;;;;10.40;6.30;;;21.90;29.90;;;;;;5012388;28;20510;-79
2022/03/09 11:42:37;;;;;;;7.10;6.20;;;21.90;29.40;;;;;;4999979;28;20425;-78
2022/03/09 11:45:15;;;;;;;9.13;5.70;;;21.90;30.30;;;;;;5014490;28;20785;-78
2022/03/09 11:48:00;;;;;;;9.00;5.73;;;21.90;29.70;;;;;;5014197;28;21038;-78
2022/03/09 11:50:28;;;;;;;7.23;5.33;;;21.90;30.60;;;;;;5012546;28;21074;-78
2022/03/09 11:53:07;;;;;;;11.20;5.33;;;22.00;31.70;;;;;;5014783;28;20777;-78
2022/03/09 11:55:34;;;;;;;10.30;5.70;;;21.90;29.80;;;;;;5012925;28;20413;-78
2022/03/09 11:58:10;;;;;;;7.10;5.50;;;21.80;29.20;;;;;;5015485;28;20445;-78
2022/03/09 12:00:59;;;;;;;9.17;6.70;;;21.80;29.80;;;;;;5014047;28;20453;-79
2022/03/09 12:03:41;;;;;;;8.50;6.00;;;21.70;29.20;;;;;;5015867;28;20468;-79
2022/03/09 12:06:53;;;;;;;11.60;7.00;;;21.70;29.30;;;;;;5017199;28;20421;-79
2022/03/09 12:09:53;;;;;;;11.40;6.00;;;21.70;29.20;;;;;;5015518;28;20790;-79
2022/03/09 12:12:19;;;;;;;12.50;6.30;;;21.70;29.30;;;;;;5019017;28;20422;-79
2022/03/09 12:15:07;;;;;;;9.63;6.00;;;21.60;28.60;;;;;;5018057;28;20424;-79
2022/03/09 12:17:38;;;;;;;9.37;6.43;;;21.50;29.30;;;;;;5014904;28;20209;-79
2022/03/09 12:20:27;;;;;;;10.57;6.37;;;21.60;29.80;;;;;;5012835;28;20504;-79
2022/03/09 12:22:56;;;;;;;13.60;7.10;;;21.50;29.10;;;;;;5014221;28;20453;-79
2022/03/09 12:25:40;;;;;;;9.87;6.80;;;21.40;28.90;;;;;;5013158;28;20417;-78
2022/03/09 12:28:23;;;;;;;12.43;7.60;;;21.30;28.60;;;;;;5012001;28;20449;-79
2022/03/09 12:30:56;;;;;;;11.93;6.70;;;21.20;28.20;;;;;;5012560;28;20959;-77
2022/03/09 12:33:27;;;;;;;10.77;6.70;;;21.00;27.90;;;;;;5009516;28;20421;-80
2022/03/09 12:36:14;;;;;;;11.57;7.43;;;21.00;28.10;;;;;;5022149;28;20460;-78
2022/03/09 12:38:50;;;;;;;12.70;7.37;;;21.00;27.90;;;;;;5012449;28;20458;-78
2022/03/09 12:41:33;;;;;;;12.97;8.00;;;21.00;27.80;;;;;;5011321;28;20798;-79
2022/03/09 12:44:10;;;;;;;10.90;6.90;;;21.00;28.40;;;;;;5012684;28;20425;-77
2022/03/09 12:46:39;;;;;;;10.60;7.03;;;21.00;28.70;;;;;;5013717;28;20451;-78
2022/03/09 12:49:14;;;;;;;11.00;6.70;;;20.90;27.70;;;;;;5016864;28;20474;-79